createdAt,value
2023-03-06T00:00:23.946Z,18.48
2023-03-06T00:02:52.338Z,24.35
2023-03-06T00:05:20.030Z,22.92
2023-03-06T00:07:47.624Z,21.67
2023-03-06T00:10:16.919Z,24.02
2023-03-06T00:12:44.495Z,21.38
2023-03-06T00:15:12.882Z,21.17
2023-03-06T00:17:41.768Z,25.45
2023-03-06T00:20:13.325Z,18.80
2023-03-06T00:22:44.196Z,20.40
2023-03-06T00:25:13.837Z,22.70
2023-03-06T00:27:42.321Z,22.33
2023-03-06T00:30:12.100Z,20.13
2023-03-06T00:32:41.051Z,19.98
2023-03-06T00:35:09.446Z,26.85
2023-03-06T00:37:37.158Z,23.15
2023-03-06T00:40:05.958Z,19.95
2023-03-06T00:42:33.373Z,20.73
2023-03-06T00:45:00.798Z,21.50
2023-03-06T00:47:28.450Z,21.73
2023-03-06T00:49:57.235Z,20.67
2023-03-06T00:52:24.648Z,18.05
2023-03-06T00:54:52.321Z,19.90
2023-03-06T00:57:19.849Z,22.23
2023-03-06T00:59:47.357Z,19.85
2023-03-06T01:02:15.135Z,22.80
2023-03-06T01:04:42.686Z,22.55
2023-03-06T01:07:12.463Z,18.48
2023-03-06T01:09:39.954Z,18.88
2023-03-06T01:12:08.221Z,20.90
2023-03-06T01:14:35.752Z,22.35
2023-03-06T01:17:03.311Z,20.35
2023-03-06T01:19:30.838Z,20.90
2023-03-06T01:21:58.318Z,18.52
2023-03-06T01:24:28.410Z,18.33
2023-03-06T01:26:57.303Z,20.85
2023-03-06T01:29:26.290Z,17.75
2023-03-06T01:31:53.713Z,15.82
2023-03-06T01:34:21.299Z,17.27
2023-03-06T01:36:48.804Z,20.85
2023-03-06T01:39:16.316Z,16.63
2023-03-06T01:41:45.094Z,17.50
2023-03-06T01:44:13.718Z,16.23
2023-03-06T01:46:42.331Z,18.80
2023-03-06T01:49:16.782Z,15.00
2023-03-06T01:51:49.805Z,15.70
2023-03-06T01:54:22.701Z,17.95
2023-03-06T01:56:56.694Z,19.02
2023-03-06T01:59:26.898Z,17.20
2023-03-06T02:01:56.039Z,20.40
2023-03-06T02:04:23.911Z,18.25
2023-03-06T02:06:52.195Z,16.65
2023-03-06T02:09:19.750Z,19.73
2023-03-06T02:11:47.269Z,21.08
2023-03-06T02:14:17.426Z,17.08
2023-03-06T02:16:45.145Z,23.83
2023-03-06T02:19:26.218Z,17.70
2023-03-06T02:21:53.780Z,18.48
2023-03-06T02:24:34.204Z,19.85
2023-03-06T02:27:04.670Z,15.52
2023-03-06T02:29:32.339Z,19.58
2023-03-06T02:32:03.197Z,21.17
2023-03-06T02:34:53.792Z,19.17
2023-03-06T02:37:22.884Z,20.73
2023-03-06T02:39:55.091Z,20.73
2023-03-06T02:42:26.555Z,17.75
2023-03-06T02:44:55.970Z,20.60
2023-03-06T02:47:23.471Z,20.40
2023-03-06T02:49:50.980Z,19.60
2023-03-06T02:52:18.788Z,19.48
2023-03-06T02:54:46.314Z,18.88
2023-03-06T02:57:13.864Z,23.90
2023-03-06T02:59:43.312Z,22.10
2023-03-06T03:02:11.231Z,22.27
2023-03-06T03:04:39.008Z,25.00
2023-03-06T03:07:08.248Z,20.95
2023-03-06T03:12:06.596Z,20.85
2023-03-06T03:14:34.763Z,22.80
2023-03-06T03:17:05.462Z,22.42
2023-03-06T03:19:33.083Z,22.95
2023-03-06T03:22:00.631Z,16.65
2023-03-06T03:24:28.126Z,20.30
2023-03-06T03:26:56.023Z,23.92
2023-03-06T03:29:24.911Z,22.85
2023-03-06T03:31:53.552Z,21.60
2023-03-06T03:34:26.525Z,20.30
2023-03-06T03:36:54.566Z,25.83
2023-03-06T03:39:22.578Z,18.15
2023-03-06T03:41:50.307Z,20.88
2023-03-06T03:44:17.740Z,20.40
2023-03-06T03:46:45.727Z,21.33
2023-03-06T03:49:18.531Z,21.52
2023-03-06T03:51:47.313Z,20.92
2023-03-06T03:54:14.911Z,23.25
2023-03-06T03:56:46.060Z,16.77
2023-03-06T03:59:19.515Z,21.42
2023-03-06T04:01:58.204Z,21.08
2023-03-06T04:04:26.639Z,23.00
2023-03-06T04:06:55.611Z,22.67
2023-03-06T04:09:23.352Z,21.08
2023-03-06T04:11:51.077Z,20.58
2023-03-06T04:14:18.799Z,24.65
2023-03-06T04:16:46.314Z,21.42
2023-03-06T04:19:14.250Z,26.50
2023-03-06T04:21:41.740Z,24.50
2023-03-06T04:24:11.264Z,23.90
2023-03-06T04:26:38.845Z,24.40
2023-03-06T04:29:06.924Z,20.42
2023-03-06T04:31:34.661Z,21.80
2023-03-06T04:34:02.147Z,26.35
2023-03-06T04:36:31.164Z,20.83
2023-03-06T04:39:03.348Z,21.70
2023-03-06T04:41:34.451Z,22.65
2023-03-06T04:44:02.320Z,22.88
2023-03-06T04:46:29.816Z,24.27
2023-03-06T04:48:57.302Z,23.50
2023-03-06T04:51:25.357Z,24.90
2023-03-06T04:53:52.756Z,19.15
2023-03-06T04:56:20.151Z,29.63
2023-03-06T04:58:49.069Z,20.63
2023-03-06T05:01:16.614Z,20.52
2023-03-06T05:03:44.189Z,25.45
2023-03-06T05:06:11.603Z,22.73
2023-03-06T05:08:39.233Z,21.67
2023-03-06T05:11:07.051Z,23.80
2023-03-06T05:13:34.617Z,25.10
2023-03-06T05:16:04.709Z,22.30
2023-03-06T05:18:32.963Z,21.77
2023-03-06T05:21:00.549Z,25.40
2023-03-06T05:23:29.131Z,20.33
2023-03-06T05:25:56.875Z,21.25
2023-03-06T05:28:25.839Z,23.75
2023-03-06T05:30:53.280Z,18.67
2023-03-06T05:33:22.038Z,22.08
2023-03-06T05:35:49.729Z,20.08
2023-03-06T05:38:17.429Z,23.65
2023-03-06T05:40:45.544Z,25.42
2023-03-06T05:43:13.030Z,22.15
2023-03-06T05:45:40.744Z,25.63
2023-03-06T05:48:09.003Z,23.08
2023-03-06T05:50:38.543Z,22.98
2023-03-06T05:53:06.368Z,23.60
2023-03-06T05:55:33.847Z,20.58
2023-03-06T05:58:01.237Z,20.50
2023-03-06T06:00:28.736Z,19.35
2023-03-06T06:02:56.115Z,20.10
2023-03-06T06:05:23.495Z,21.38
2023-03-06T06:07:52.352Z,22.15
2023-03-06T06:10:20.005Z,26.45
2023-03-06T06:12:47.532Z,23.58
2023-03-06T06:15:15.416Z,23.00
2023-03-06T06:17:42.957Z,25.25
2023-03-06T06:20:11.631Z,26.75
2023-03-06T06:22:39.064Z,23.77
2023-03-06T06:25:08.863Z,25.98
2023-03-06T06:27:36.339Z,26.67
2023-03-06T06:30:04.895Z,26.20
2023-03-06T06:32:32.479Z,24.63
2023-03-06T06:34:59.908Z,24.70
2023-03-06T06:37:27.330Z,25.23
2023-03-06T06:39:54.849Z,28.88
2023-03-06T06:42:33.178Z,26.25
2023-03-06T06:45:03.076Z,25.85
2023-03-06T06:47:31.099Z,26.35
2023-03-06T06:49:58.659Z,23.42
2023-03-06T06:52:26.300Z,27.15
2023-03-06T06:54:54.138Z,24.48
2023-03-06T06:57:22.918Z,26.42
2023-03-06T06:59:52.553Z,27.80
2023-03-06T07:02:21.017Z,20.27
2023-03-06T07:05:02.482Z,24.58
2023-03-06T07:07:31.497Z,22.95
2023-03-06T07:09:58.918Z,22.65
2023-03-06T07:12:27.784Z,25.10
2023-03-06T07:14:55.564Z,25.42
2023-03-06T07:17:23.053Z,23.45
2023-03-06T07:19:50.628Z,23.70
2023-03-06T07:22:18.244Z,23.73
2023-03-06T07:24:45.737Z,23.00
2023-03-06T07:27:13.304Z,21.40
2023-03-06T07:29:44.068Z,23.95
2023-03-06T07:32:11.776Z,25.15
2023-03-06T07:34:39.488Z,25.40
2023-03-06T07:37:07.019Z,26.58
2023-03-06T07:39:34.896Z,20.98
2023-03-06T07:42:02.453Z,22.75
2023-03-06T07:44:29.986Z,25.40
2023-03-06T07:46:58.790Z,19.73
2023-03-06T07:49:26.371Z,17.80
2023-03-06T07:51:53.837Z,20.58
2023-03-06T07:54:21.242Z,18.67
2023-03-06T07:56:50.324Z,23.35
2023-03-06T07:59:17.906Z,22.52
2023-03-06T08:01:45.566Z,27.90
2023-03-06T08:04:14.457Z,26.13
2023-03-06T08:06:42.011Z,19.73
2023-03-06T08:09:09.376Z,19.95
2023-03-06T08:11:36.820Z,22.15
2023-03-06T08:14:04.962Z,19.33
2023-03-06T08:16:32.445Z,18.85
2023-03-06T08:18:59.915Z,20.42
2023-03-06T08:21:28.860Z,15.55
2023-03-06T08:23:56.683Z,19.20
2023-03-06T08:26:26.523Z,16.83
2023-03-06T08:28:54.898Z,16.48
2023-03-06T08:31:27.453Z,15.57
2023-03-06T08:33:55.838Z,16.13
2023-03-06T08:36:23.934Z,13.90
2023-03-06T08:38:52.976Z,16.42
2023-03-06T08:41:21.085Z,14.70
2023-03-06T08:43:49.218Z,14.90
2023-03-06T08:46:18.790Z,12.95
2023-03-06T08:51:16.467Z,15.38
2023-03-06T08:53:44.695Z,19.35
2023-03-06T08:56:18.772Z,15.23
2023-03-06T08:58:46.528Z,10.48
2023-03-06T09:01:15.185Z,14.77
2023-03-06T09:03:42.962Z,14.02
2023-03-06T09:06:10.776Z,15.45
2023-03-06T09:08:38.568Z,12.13
2023-03-06T09:11:06.002Z,12.07
2023-03-06T09:13:34.856Z,12.30
2023-03-06T09:16:02.270Z,10.77
2023-03-06T09:18:29.716Z,14.65
2023-03-06T09:20:57.200Z,12.98
2023-03-06T09:23:24.720Z,11.48
2023-03-06T09:25:53.016Z,11.70
2023-03-06T09:28:20.836Z,12.65
2023-03-06T09:30:50.317Z,11.10
2023-03-06T09:33:18.489Z,12.85
2023-03-06T09:35:50.853Z,15.50
2023-03-06T09:38:18.361Z,10.25
2023-03-06T09:41:01.691Z,14.18
2023-03-06T09:43:31.550Z,10.10
2023-03-06T09:46:00.311Z,10.13
2023-03-06T09:48:37.115Z,11.90
2023-03-06T09:51:12.283Z,13.20
2023-03-06T09:53:55.408Z,11.93
2023-03-06T09:56:30.969Z,13.63
2023-03-06T09:59:06.455Z,12.32
2023-03-06T10:01:40.046Z,12.73
2023-03-06T10:04:19.573Z,11.95
2023-03-06T10:06:49.546Z,11.05
2023-03-06T10:09:20.529Z,13.07
2023-03-06T10:11:52.891Z,13.43
2023-03-06T10:14:26.516Z,15.65
2023-03-06T10:16:56.106Z,12.85
2023-03-06T10:19:34.416Z,12.88
2023-03-06T10:22:07.152Z,12.50
2023-03-06T10:24:49.617Z,11.40
2023-03-06T10:27:28.815Z,10.68
2023-03-06T10:30:03.856Z,13.77
2023-03-06T10:32:48.659Z,18.33
2023-03-06T10:35:19.702Z,14.07
2023-03-06T10:37:47.977Z,14.50
2023-03-06T10:40:18.166Z,13.73
2023-03-06T10:42:45.641Z,14.25
2023-03-06T10:45:15.302Z,12.93
2023-03-06T10:47:44.151Z,16.70
2023-03-06T10:50:24.957Z,12.95
2023-03-06T10:53:00.378Z,13.50
2023-03-06T10:55:30.462Z,16.70
2023-03-06T10:57:58.128Z,17.52
2023-03-06T11:00:31.477Z,17.45
2023-03-06T11:03:22.978Z,17.92
2023-03-06T11:05:57.014Z,15.55
2023-03-06T11:08:24.523Z,16.88
2023-03-06T11:10:57.912Z,18.33
2023-03-06T11:13:27.578Z,16.13
2023-03-06T11:15:58.167Z,17.55
2023-03-06T11:18:34.736Z,19.40
2023-03-06T11:21:07.144Z,17.83
2023-03-06T11:23:41.096Z,18.98
2023-03-06T11:26:24.897Z,17.00
2023-03-06T11:29:02.918Z,15.77
2023-03-06T11:31:33.390Z,15.35
2023-03-06T11:34:09.021Z,19.08
2023-03-06T11:36:40.031Z,14.90
2023-03-06T11:39:22.672Z,16.23
2023-03-06T11:41:58.220Z,17.55
2023-03-06T11:44:34.563Z,14.02
2023-03-06T11:47:10.950Z,17.15
2023-03-06T11:49:44.702Z,16.08
2023-03-06T11:52:18.339Z,16.38
2023-03-06T11:54:50.793Z,19.67
2023-03-06T11:57:22.192Z,15.05
2023-03-06T12:00:01.026Z,15.77
2023-03-06T12:02:40.851Z,13.60
2023-03-06T12:05:29.111Z,14.05
2023-03-06T12:08:07.761Z,12.63
2023-03-06T12:10:41.435Z,15.68
2023-03-06T12:13:27.768Z,13.70
2023-03-06T12:16:10.157Z,16.77
2023-03-06T12:18:47.851Z,13.77
2023-03-06T12:21:27.212Z,14.88
2023-03-06T12:24:12.682Z,15.38
2023-03-06T12:26:57.971Z,12.18
2023-03-06T12:29:40.305Z,15.25
2023-03-06T12:32:16.894Z,15.18
2023-03-06T12:34:59.249Z,14.50
2023-03-06T12:37:39.529Z,15.18
2023-03-06T12:40:38.814Z,17.40
2023-03-06T12:43:28.520Z,16.25
2023-03-06T12:45:59.232Z,17.10
2023-03-06T12:48:33.746Z,14.85
2023-03-06T12:51:01.952Z,13.20
2023-03-06T12:53:32.875Z,16.05
2023-03-06T12:56:02.614Z,17.65
2023-03-06T12:58:51.957Z,18.35
2023-03-06T13:01:41.092Z,12.00
2023-03-06T13:04:27.567Z,14.70
2023-03-06T13:07:09.804Z,15.02
2023-03-06T13:09:55.470Z,12.13
2023-03-06T13:12:36.548Z,13.07
2023-03-06T13:15:27.354Z,14.30
2023-03-06T13:17:54.939Z,16.27
2023-03-06T13:20:34.865Z,16.27
2023-03-06T13:23:42.581Z,13.93
2023-03-06T13:26:49.947Z,11.10
2023-03-06T13:29:58.953Z,12.15
2023-03-06T13:32:32.415Z,11.52
2023-03-06T13:35:00.138Z,16.67
2023-03-06T13:37:47.735Z,16.52
2023-03-06T13:40:27.162Z,13.40
2023-03-06T13:43:21.345Z,26.40
2023-03-06T13:45:50.099Z,11.63
2023-03-06T13:48:42.990Z,16.05
2023-03-06T13:51:22.832Z,9.88
2023-03-06T13:54:25.821Z,12.27
2023-03-06T13:57:29.968Z,13.98
2023-03-06T14:00:20.460Z,8.18
2023-03-06T14:03:07.730Z,12.52
2023-03-06T14:05:43.343Z,10.40
2023-03-06T14:08:14.550Z,10.88
2023-03-06T14:10:43.371Z,10.95
2023-03-06T14:13:18.346Z,12.00
2023-03-06T14:15:50.570Z,11.93
2023-03-06T14:18:23.905Z,11.10
2023-03-06T14:20:56.650Z,11.65
2023-03-06T14:23:28.201Z,9.05
2023-03-06T14:26:02.386Z,11.32
2023-03-06T14:28:31.395Z,10.63
2023-03-06T14:31:02.819Z,16.17
2023-03-06T14:33:33.421Z,13.65
2023-03-06T14:36:03.383Z,13.00
2023-03-06T14:38:36.251Z,15.10
2023-03-06T14:41:05.524Z,15.68
2023-03-06T14:43:33.355Z,12.38
2023-03-06T14:46:04.161Z,12.95
2023-03-06T14:48:41.316Z,15.23
2023-03-06T14:51:16.009Z,9.60
2023-03-06T14:53:45.194Z,16.17
2023-03-06T14:56:17.043Z,11.35
2023-03-06T14:58:52.661Z,15.20
2023-03-06T15:01:31.464Z,7.93
2023-03-06T15:04:00.944Z,11.05
2023-03-06T15:06:33.968Z,11.77
2023-03-06T15:09:07.627Z,17.67
2023-03-06T15:11:52.291Z,17.35
2023-03-06T15:14:27.132Z,14.18
2023-03-06T15:16:55.876Z,9.82
2023-03-06T15:19:23.347Z,11.77
2023-03-06T15:21:52.054Z,12.13
2023-03-06T15:24:33.259Z,20.58
2023-03-06T15:27:02.931Z,15.70
2023-03-06T15:29:30.661Z,17.30
2023-03-06T15:32:31.091Z,12.77
2023-03-06T15:35:27.615Z,12.55
2023-03-06T15:37:55.557Z,11.73
2023-03-06T15:40:24.733Z,10.35
2023-03-06T15:45:21.898Z,10.75
2023-03-06T15:47:53.550Z,11.05
2023-03-06T15:50:23.304Z,10.43
2023-03-06T15:52:51.052Z,11.32
2023-03-06T15:55:20.961Z,10.00
2023-03-06T15:57:51.627Z,12.30
2023-03-06T16:00:52.988Z,10.30
2023-03-06T16:03:22.168Z,9.60
2023-03-06T16:05:49.630Z,12.73
2023-03-06T16:08:17.129Z,13.15
2023-03-06T16:10:45.675Z,13.27
2023-03-06T16:13:17.269Z,14.80
2023-03-06T16:15:47.589Z,12.75
2023-03-06T16:18:15.511Z,8.02
2023-03-06T16:20:44.709Z,13.35
2023-03-06T16:23:12.613Z,10.60
2023-03-06T16:25:42.099Z,9.32
2023-03-06T16:28:12.443Z,10.27
2023-03-06T16:30:41.924Z,7.28
2023-03-06T16:33:10.766Z,11.57
2023-03-06T16:35:38.653Z,10.55
2023-03-06T16:38:07.680Z,10.02
2023-03-06T16:40:41.351Z,9.50
2023-03-06T16:43:10.378Z,9.02
2023-03-06T16:45:39.583Z,10.45
2023-03-06T16:50:38.516Z,10.32
2023-03-06T16:53:08.080Z,15.10
2023-03-06T16:55:35.686Z,13.93
2023-03-06T16:58:03.303Z,12.93
2023-03-06T17:00:33.121Z,13.43
2023-03-06T17:03:01.584Z,13.55
2023-03-06T17:05:29.399Z,11.48
2023-03-06T17:07:56.823Z,10.75
2023-03-06T17:10:27.162Z,11.02
2023-03-06T17:12:55.830Z,12.77
2023-03-06T17:15:23.430Z,11.20
2023-03-06T17:17:51.668Z,11.43
2023-03-06T17:20:20.260Z,12.23
2023-03-06T17:22:47.906Z,11.80
2023-03-06T17:25:15.422Z,11.85
2023-03-06T17:27:44.228Z,12.63
2023-03-06T17:30:12.641Z,14.07
2023-03-06T17:32:41.013Z,10.48
2023-03-06T17:35:09.578Z,12.35
2023-03-06T17:37:37.065Z,11.35
2023-03-06T17:40:08.357Z,12.02
2023-03-06T17:42:35.928Z,10.77
2023-03-06T17:45:09.075Z,14.57
2023-03-06T17:47:36.504Z,10.50
2023-03-06T17:50:04.704Z,11.93
2023-03-06T17:52:33.344Z,15.80
2023-03-06T17:55:00.779Z,21.55
2023-03-06T17:57:28.262Z,35.72
2023-03-06T17:59:56.342Z,14.75
2023-03-06T18:02:25.119Z,13.98
2023-03-06T18:04:52.636Z,13.55
2023-03-06T18:07:20.091Z,10.90
2023-03-06T18:09:47.645Z,12.20
2023-03-06T18:12:16.065Z,15.23
2023-03-06T18:14:43.565Z,14.43
2023-03-06T18:17:11.098Z,12.57
2023-03-06T18:19:41.253Z,11.88
2023-03-06T18:22:08.745Z,12.65
2023-03-06T18:24:36.859Z,14.05
2023-03-06T18:27:04.414Z,12.43
2023-03-06T18:29:31.872Z,11.93
2023-03-06T18:31:59.486Z,14.45
2023-03-06T18:34:27.154Z,13.18
2023-03-06T18:36:55.943Z,13.70
2023-03-06T18:39:23.479Z,13.85
2023-03-06T18:41:51.734Z,12.70
2023-03-06T18:44:19.350Z,12.77
2023-03-06T18:46:47.070Z,13.70
2023-03-06T18:49:16.199Z,13.70
2023-03-06T18:51:43.701Z,11.35
2023-03-06T18:54:12.580Z,14.30
2023-03-06T18:56:44.052Z,14.80
2023-03-06T18:59:16.086Z,13.82
2023-03-06T19:01:45.123Z,15.50
2023-03-06T19:04:12.705Z,15.52
2023-03-06T19:06:41.233Z,15.80
2023-03-06T19:09:09.315Z,14.00
2023-03-06T19:11:38.367Z,14.65
2023-03-06T19:14:06.704Z,17.58
2023-03-06T19:19:51.598Z,14.43
2023-03-06T19:22:19.062Z,15.82
2023-03-06T19:24:48.060Z,14.75
2023-03-06T19:27:16.996Z,13.70
2023-03-06T19:29:44.836Z,13.88
2023-03-06T19:32:15.793Z,12.88
2023-03-06T19:35:24.140Z,15.85
2023-03-06T19:38:33.263Z,15.13
2023-03-06T19:41:01.029Z,14.52
2023-03-06T19:43:30.685Z,14.60
2023-03-06T19:45:58.320Z,16.50
2023-03-06T19:48:26.765Z,17.15
2023-03-06T19:50:54.235Z,17.80
2023-03-06T19:53:23.060Z,23.27
2023-03-06T19:55:50.629Z,18.67
2023-03-06T19:58:18.075Z,14.68
2023-03-06T20:00:46.868Z,12.52
2023-03-06T20:03:14.343Z,16.42
2023-03-06T20:05:46.154Z,16.45
2023-03-06T20:08:13.638Z,14.90
2023-03-06T20:10:41.400Z,13.57
2023-03-06T20:13:08.897Z,13.13
2023-03-06T20:15:36.882Z,15.35
2023-03-06T20:18:06.347Z,14.85
2023-03-06T20:20:33.951Z,15.43
2023-03-06T20:23:04.401Z,13.52
2023-03-06T20:25:36.678Z,14.90
2023-03-06T20:28:04.441Z,15.13
2023-03-06T20:30:38.082Z,17.63
2023-03-06T20:33:07.353Z,16.67
2023-03-06T20:35:35.352Z,16.60
2023-03-06T20:38:03.242Z,14.95
2023-03-06T20:40:30.669Z,17.73
2023-03-06T20:42:58.136Z,15.05
2023-03-06T20:45:25.519Z,15.93
2023-03-06T20:47:56.136Z,18.88
2023-03-06T20:50:25.989Z,16.27
2023-03-06T20:52:53.737Z,22.50
2023-03-06T20:55:21.296Z,18.35
2023-03-06T20:57:49.789Z,21.88
2023-03-06T21:00:19.019Z,12.93
2023-03-06T21:05:14.251Z,13.80
2023-03-06T21:07:43.111Z,13.32
2023-03-06T21:10:11.564Z,16.50
2023-03-06T21:12:39.055Z,14.43
2023-03-06T21:15:08.045Z,15.02
2023-03-06T21:17:35.524Z,13.82
2023-03-06T21:20:05.371Z,14.52
2023-03-06T21:22:32.855Z,15.30
2023-03-06T21:25:01.649Z,15.55
2023-03-06T21:27:29.101Z,14.90
2023-03-06T21:29:56.849Z,15.18
2023-03-06T21:32:24.262Z,11.95
2023-03-06T21:34:51.719Z,13.20
2023-03-06T21:37:19.181Z,15.50
2023-03-06T21:39:46.633Z,15.13
2023-03-06T21:42:15.611Z,13.15
2023-03-06T21:44:43.089Z,16.52
2023-03-06T21:47:10.491Z,14.80
2023-03-06T21:49:38.050Z,13.43
2023-03-06T21:52:05.676Z,17.05
2023-03-06T21:54:33.179Z,13.65
2023-03-06T21:57:00.674Z,16.55
2023-03-06T21:59:29.541Z,16.65
2023-03-06T22:01:57.163Z,12.45
2023-03-06T22:04:24.821Z,16.30
2023-03-06T22:06:52.197Z,13.27
2023-03-06T22:09:20.014Z,12.45
2023-03-06T22:11:47.942Z,12.70
2023-03-06T22:14:15.726Z,13.32
2023-03-06T22:16:44.657Z,13.75
2023-03-06T22:19:12.497Z,12.88
2023-03-06T22:21:40.030Z,13.63
2023-03-06T22:24:07.584Z,14.43
2023-03-06T22:26:34.995Z,14.43
2023-03-06T22:29:02.517Z,12.90
2023-03-06T22:31:30.316Z,13.75
2023-03-06T22:34:00.767Z,12.65
2023-03-06T22:36:30.624Z,14.65
2023-03-06T22:39:00.783Z,11.88
2023-03-06T22:41:28.926Z,12.98
2023-03-06T22:44:02.193Z,12.10
2023-03-06T22:46:30.427Z,11.80
2023-03-06T22:49:00.452Z,11.68
2023-03-06T22:51:29.391Z,14.43
2023-03-06T22:53:56.899Z,13.63
2023-03-06T22:56:24.577Z,15.43
2023-03-06T22:58:52.137Z,11.43
2023-03-06T23:01:21.674Z,14.50
2023-03-06T23:03:50.993Z,12.55
2023-03-06T23:08:50.121Z,13.35
2023-03-06T23:14:05.784Z,12.43
2023-03-06T23:16:52.011Z,13.30
2023-03-06T23:19:38.056Z,13.32
2023-03-06T23:22:25.542Z,13.70
2023-03-06T23:25:11.642Z,10.00
2023-03-06T23:27:39.267Z,13.43
2023-03-06T23:30:09.089Z,13.75
2023-03-06T23:32:36.685Z,13.93
2023-03-06T23:35:04.651Z,10.45
2023-03-06T23:37:33.681Z,11.82
2023-03-06T23:40:01.709Z,12.77
2023-03-06T23:42:29.330Z,11.93
2023-03-06T23:44:56.713Z,11.82
2023-03-06T23:47:24.277Z,10.57
2023-03-06T23:49:51.794Z,12.18
2023-03-06T23:52:19.382Z,12.60
2023-03-06T23:54:52.698Z,14.63
2023-03-06T23:57:20.254Z,11.68
2023-03-06T23:59:47.811Z,12.48
